41.8°F
Current conditions from King Hill
Updated every 5 minutes
 
  Thursday October 23, 2014

Station Historical Data
Daily Summary for December 30, 2011 Units:  Both    English   Metric
« Previous Day
Next Day »
Daily Weekly Monthly Yearly Custom
  High: Low: Average:
Temperature: 27.9 °F /  -2.3 °C -0.1 °F /  -17.8 °C 13.5 °F /  -10.3 °C
Dew Point: 24.4 °F /  -4.2 °C -5.1 °F /  -20.6 °C 8.8 °F /  -12.9 °C
Humidity: 92% 76% 81%
Wind Speed: 2.0mph /  3.2km/h - 1.1mph /  1.8km/h
Wind Gust: 6.0mph /  9.7km/h - -
Wind- - East
Pressure: 30.08 in /  1018.5 hPa 29.98 in /  1015.1 hPa -
Precipitation: 0.00 in /  0 mm    
Historical Graphs
 
 
Tabular Data for December 30, 2011
Time Temperature Dew Point Pressure Wind Wind Speed Wind Gust Humidity Daily Rainfall
00:00 0.9 °F /  -17.3 °C -3.8 °F /  -19.9 °C 30.04in /  1017.2hPa Calm     80% 0.00in /  0mm
00:05 0.8 °F /  -17.3 °C -3.9 °F /  -19.9 °C 30.03in /  1016.8hPa Calm     80% 0.00in /  0mm
00:10 0.9 °F /  -17.3 °C -3.8 °F /  -19.9 °C 30.03in /  1016.8hPa Calm     80% 0.00in /  0mm
00:15 1.0 °F /  -17.2 °C -3.7 °F /  -19.8 °C 30.03in /  1016.8hPa Calm     80% 0.00in /  0mm
00:20 1.2 °F /  -17.1 °C -3.5 °F /  -19.7 °C 30.03in /  1016.8hPa Calm     80% 0.00in /  0mm
00:25 1.3 °F /  -17.1 °C -3.4 °F /  -19.7 °C 30.03in /  1016.8hPa Calm     80% 0.00in /  0mm
00:30 1.3 °F /  -17.1 °C -3.4 °F /  -19.7 °C 30.03in /  1016.8hPa Calm     80% 0.00in /  0mm
00:35 1.5 °F /  -16.9 °C -3.2 °F /  -19.6 °C 30.03in /  1016.8hPa Calm     80% 0.00in /  0mm
00:40 1.5 °F /  -16.9 °C -3.2 °F /  -19.6 °C 30.03in /  1016.8hPa Calm     80% 0.00in /  0mm
00:45 1.5 °F /  -16.9 °C -3.2 °F /  -19.6 °C 30.03in /  1016.8hPa Calm     80% 0.00in /  0mm
00:50 1.4 °F /  -17 °C -3.3 °F /  -19.6 °C 30.03in /  1016.8hPa Calm     80% 0.00in /  0mm
00:55 1.4 °F /  -17 °C -3.3 °F /  -19.6 °C 30.03in /  1016.8hPa Calm     80% 0.00in /  0mm
01:00 1.3 °F /  -17.1 °C -3.4 °F /  -19.7 °C 30.03in /  1016.8hPa Calm     80% 0.00in /  0mm
01:05 1.0 °F /  -17.2 °C -4.0 °F /  -20 °C 30.03in /  1016.8hPa Calm     79% 0.00in /  0mm
01:10 0.6 °F /  -17.4 °C -4.4 °F /  -20.2 °C 30.04in /  1017.2hPa Calm     79% 0.00in /  0mm
01:15 0.4 °F /  -17.6 °C -4.6 °F /  -20.3 °C 30.04in /  1017.2hPa Calm     79% 0.00in /  0mm
01:20 0.2 °F /  -17.7 °C -4.8 °F /  -20.4 °C 30.04in /  1017.2hPa Calm     79% 0.00in /  0mm
01:25 0.5 °F /  -17.5 °C -4.2 °F /  -20.1 °C 30.04in /  1017.2hPa Calm     80% 0.00in /  0mm
01:30 0.7 °F /  -17.4 °C -4.0 °F /  -20 °C 30.03in /  1016.8hPa Calm     80% 0.00in /  0mm
01:35 0.6 °F /  -17.4 °C -4.1 °F /  -20.1 °C 30.03in /  1016.8hPa Calm     80% 0.00in /  0mm
01:40 0.5 °F /  -17.5 °C -4.2 °F /  -20.1 °C 30.04in /  1017.2hPa Calm     80% 0.00in /  0mm
01:45 0.7 °F /  -17.4 °C -4.0 °F /  -20 °C 30.04in /  1017.2hPa Calm     80% 0.00in /  0mm
01:50 0.9 °F /  -17.3 °C -3.8 °F /  -19.9 °C 30.04in /  1017.2hPa Calm     80% 0.00in /  0mm
01:55 1.2 °F /  -17.1 °C -3.5 °F /  -19.7 °C 30.04in /  1017.2hPa Calm     80% 0.00in /  0mm
02:00 1.7 °F /  -16.8 °C -3.0 °F /  -19.4 °C 30.04in /  1017.2hPa Calm     80% 0.00in /  0mm
02:05 1.7 °F /  -16.8 °C -3.0 °F /  -19.4 °C 30.04in /  1017.2hPa Calm     80% 0.00in /  0mm
02:10 1.6 °F /  -16.9 °C -3.4 °F /  -19.7 °C 30.05in /  1017.5hPa Calm     79% 0.00in /  0mm
02:15 1.6 °F /  -16.9 °C -3.1 °F /  -19.5 °C 30.05in /  1017.5hPa Calm     80% 0.00in /  0mm
02:20 1.4 °F /  -17 °C -3.6 °F /  -19.8 °C 30.05in /  1017.5hPa Calm     79% 0.00in /  0mm
02:25 1.3 °F /  -17.1 °C -3.7 °F /  -19.8 °C 30.05in /  1017.5hPa Calm     79% 0.00in /  0mm
02:30 1.3 °F /  -17.1 °C -3.4 °F /  -19.7 °C 30.05in /  1017.5hPa Calm     80% 0.00in /  0mm
02:35 1.6 °F /  -16.9 °C -3.1 °F /  -19.5 °C 30.05in /  1017.5hPa Calm     80% 0.00in /  0mm
02:40 1.5 °F /  -16.9 °C -3.5 °F /  -19.7 °C 30.05in /  1017.5hPa Calm     79% 0.00in /  0mm
02:45 1.2 °F /  -17.1 °C -3.8 °F /  -19.9 °C 30.05in /  1017.5hPa Calm     79% 0.00in /  0mm
02:50 1.0 °F /  -17.2 °C -4.0 °F /  -20 °C 30.05in /  1017.5hPa Calm     79% 0.00in /  0mm
02:55 0.7 °F /  -17.4 °C -4.3 °F /  -20.2 °C 30.05in /  1017.5hPa Calm     79% 0.00in /  0mm
03:00 0.4 °F /  -17.6 °C -4.6 °F /  -20.3 °C 30.05in /  1017.5hPa Calm     79% 0.00in /  0mm
03:05 0.3 °F /  -17.6 °C -4.7 °F /  -20.4 °C 30.05in /  1017.5hPa Calm   1.0mph /  1.6km/h 79% 0.00in /  0mm
03:10 0.1 °F /  -17.7 °C -4.9 °F /  -20.5 °C 30.04in /  1017.2hPa Calm   1.0mph /  1.6km/h 79% 0.00in /  0mm
03:15 -0.1 °F /  -17.8 °C -5.1 °F /  -20.6 °C 30.04in /  1017.2hPa Calm     79% 0.00in /  0mm
03:20 0.0 °F /  -17.8 °C -4.7 °F /  -20.4 °C 30.04in /  1017.2hPa Calm     80% 0.00in /  0mm
03:25 0.2 °F /  -17.7 °C -4.5 °F /  -20.3 °C 30.04in /  1017.2hPa Calm     80% 0.00in /  0mm
03:35 0.5 °F /  -17.5 °C -4.2 °F /  -20.1 °C 30.05in /  1017.5hPa Calm     80% 0.00in /  0mm
03:40 0.7 °F /  -17.4 °C -4.0 °F /  -20 °C 30.04in /  1017.2hPa Calm     80% 0.00in /  0mm
03:45 1.0 °F /  -17.2 °C -3.7 °F /  -19.8 °C 30.04in /  1017.2hPa Calm     80% 0.00in /  0mm
03:55 1.0 °F /  -17.2 °C -3.7 °F /  -19.8 °C 30.04in /  1017.2hPa Calm     80% 0.00in /  0mm
04:00 1.1 °F /  -17.2 °C -3.6 °F /  -19.8 °C 30.04in /  1017.2hPa Calm     80% 0.00in /  0mm
04:05 1.2 °F /  -17.1 °C -3.5 °F /  -19.7 °C 30.04in /  1017.2hPa Calm     80% 0.00in /  0mm
04:10 1.1 °F /  -17.2 °C -3.6 °F /  -19.8 °C 30.04in /  1017.2hPa Calm     80% 0.00in /  0mm
04:15 1.1 °F /  -17.2 °C -3.6 °F /  -19.8 °C 30.04in /  1017.2hPa Calm     80% 0.00in /  0mm
04:20 1.2 °F /  -17.1 °C -3.5 °F /  -19.7 °C 30.04in /  1017.2hPa Calm     80% 0.00in /  0mm
04:25 1.2 °F /  -17.1 °C -3.5 °F /  -19.7 °C 30.04in /  1017.2hPa Calm     80% 0.00in /  0mm
04:30 1.3 °F /  -17.1 °C -3.4 °F /  -19.7 °C 30.04in /  1017.2hPa Calm     80% 0.00in /  0mm
04:35 1.3 °F /  -17.1 °C -3.4 °F /  -19.7 °C 30.03in /  1016.8hPa Calm     80% 0.00in /  0mm
04:40 1.4 °F /  -17 °C -3.3 °F /  -19.6 °C 30.04in /  1017.2hPa Calm     80% 0.00in /  0mm
04:45 1.5 °F /  -16.9 °C -3.2 °F /  -19.6 °C 30.04in /  1017.2hPa Calm     80% 0.00in /  0mm
04:50 1.6 °F /  -16.9 °C -3.1 °F /  -19.5 °C 30.04in /  1017.2hPa Calm     80% 0.00in /  0mm
04:55 1.7 °F /  -16.8 °C -3.0 °F /  -19.4 °C 30.04in /  1017.2hPa Calm     80% 0.00in /  0mm
05:00 1.6 °F /  -16.9 °C -3.4 °F /  -19.7 °C 30.04in /  1017.2hPa Calm     79% 0.00in /  0mm
05:05 1.7 °F /  -16.8 °C -3.0 °F /  -19.4 °C 30.04in /  1017.2hPa Calm     80% 0.00in /  0mm
05:10 1.8 °F /  -16.8 °C -2.9 °F /  -19.4 °C 30.04in /  1017.2hPa Calm     80% 0.00in /  0mm
05:15 2.0 °F /  -16.7 °C -3.0 °F /  -19.4 °C 30.04in /  1017.2hPa Calm     79% 0.00in /  0mm
05:20 2.1 °F /  -16.6 °C -2.9 °F /  -19.4 °C 30.04in /  1017.2hPa Calm     79% 0.00in /  0mm
05:30 2.4 °F /  -16.4 °C -2.6 °F /  -19.2 °C 30.04in /  1017.2hPa Calm     79% 0.00in /  0mm
05:35 2.6 °F /  -16.3 °C -2.4 °F /  -19.1 °C 30.04in /  1017.2hPa Calm     79% 0.00in /  0mm
05:40 2.7 °F /  -16.3 °C -2.3 °F /  -19.1 °C 30.04in /  1017.2hPa Calm     79% 0.00in /  0mm
05:50 2.4 °F /  -16.4 °C -2.6 °F /  -19.2 °C 30.04in /  1017.2hPa Calm     79% 0.00in /  0mm
05:55 2.3 °F /  -16.5 °C -2.7 °F /  -19.3 °C 30.04in /  1017.2hPa Calm     79% 0.00in /  0mm
06:00 2.3 °F /  -16.5 °C -2.7 °F /  -19.3 °C 30.04in /  1017.2hPa Calm     79% 0.00in /  0mm
06:05 2.3 °F /  -16.5 °C -2.7 °F /  -19.3 °C 30.04in /  1017.2hPa Calm     79% 0.00in /  0mm
06:10 2.4 °F /  -16.4 °C -2.6 °F /  -19.2 °C 30.05in /  1017.5hPa Calm     79% 0.00in /  0mm
06:15 2.6 °F /  -16.3 °C -2.4 °F /  -19.1 °C 30.05in /  1017.5hPa Calm     79% 0.00in /  0mm
06:20 2.6 °F /  -16.3 °C -2.4 °F /  -19.1 °C 30.05in /  1017.5hPa Calm     79% 0.00in /  0mm
06:25 2.7 °F /  -16.3 °C -2.3 °F /  -19.1 °C 30.05in /  1017.5hPa Calm     79% 0.00in /  0mm
06:30 2.8 °F /  -16.2 °C -2.0 °F /  -18.9 °C 30.05in /  1017.5hPa Calm     80% 0.00in /  0mm
06:40 3.2 °F /  -16 °C -1.8 °F /  -18.8 °C 30.05in /  1017.5hPa Calm     79% 0.00in /  0mm
06:45 3.3 °F /  -15.9 °C -1.7 °F /  -18.7 °C 30.05in /  1017.5hPa Calm     79% 0.00in /  0mm
06:50 3.4 °F /  -15.9 °C -1.6 °F /  -18.7 °C 30.06in /  1017.8hPa Calm     79% 0.00in /  0mm
06:55 3.7 °F /  -15.7 °C -1.1 °F /  -18.4 °C 30.06in /  1017.8hPa Calm     80% 0.00in /  0mm
07:00 4.0 °F /  -15.6 °C -0.8 °F /  -18.2 °C 30.06in /  1017.8hPa Calm     80% 0.00in /  0mm
07:05 4.4 °F /  -15.3 °C -0.4 °F /  -18 °C 30.06in /  1017.8hPa Calm   1.0mph /  1.6km/h 80% 0.00in /  0mm
07:10 5.1 °F /  -14.9 °C 0.3 °F /  -17.6 °C 30.06in /  1017.8hPa Calm   2.0mph /  3.2km/h 80% 0.00in /  0mm
07:15 5.7 °F /  -14.6 °C 0.9 °F /  -17.3 °C 30.06in /  1017.8hPa Calm   2.0mph /  3.2km/h 80% 0.00in /  0mm
07:20 6.1 °F /  -14.4 °C 1.0 °F /  -17.2 °C 30.06in /  1017.8hPa Calm   2.0mph /  3.2km/h 79% 0.00in /  0mm
07:25 6.4 °F /  -14.2 °C 1.0 °F /  -17.2 °C 30.06in /  1017.8hPa Calm     78% 0.00in /  0mm
07:35 7.0 °F /  -13.9 °C 1.6 °F /  -16.9 °C 30.06in /  1017.8hPa Calm   1.0mph /  1.6km/h 78% 0.00in /  0mm
07:40 7.2 °F /  -13.8 °C 1.8 °F /  -16.8 °C 30.06in /  1017.8hPa Calm   1.0mph /  1.6km/h 78% 0.00in /  0mm
07:45 7.5 °F /  -13.6 °C 2.1 °F /  -16.6 °C 30.06in /  1017.8hPa Calm     78% 0.00in /  0mm
07:50 7.7 °F /  -13.5 °C 2.3 °F /  -16.5 °C 30.06in /  1017.8hPa Calm     78% 0.00in /  0mm
07:55 7.9 °F /  -13.4 °C 2.2 °F /  -16.6 °C 30.06in /  1017.8hPa Calm     77% 0.00in /  0mm
08:00 8.1 °F /  -13.3 °C 2.7 °F /  -16.3 °C 30.07in /  1018.2hPa Calm     78% 0.00in /  0mm
08:05 8.3 °F /  -13.2 °C 2.9 °F /  -16.2 °C 30.07in /  1018.2hPa Calm     78% 0.00in /  0mm
08:10 8.6 °F /  -13 °C 3.2 °F /  -16 °C 30.07in /  1018.2hPa Calm     78% 0.00in /  0mm
08:15 8.9 °F /  -12.8 °C 3.4 °F /  -15.9 °C 30.08in /  1018.5hPa Calm   2.0mph /  3.2km/h 78% 0.00in /  0mm
08:20 9.2 °F /  -12.7 °C 3.5 °F /  -15.8 °C 30.08in /  1018.5hPa Calm   2.0mph /  3.2km/h 77% 0.00in /  0mm
08:25 9.4 °F /  -12.6 °C 3.6 °F /  -15.8 °C 30.08in /  1018.5hPa Calm   1.0mph /  1.6km/h 77% 0.00in /  0mm
08:30 9.6 °F /  -12.4 °C 3.6 °F /  -15.8 °C 30.08in /  1018.5hPa Calm   2.0mph /  3.2km/h 76% 0.00in /  0mm
08:35 9.7 °F /  -12.4 °C 3.7 °F /  -15.7 °C 30.08in /  1018.5hPa ENE 1.0mph /  1.6km/h 3.0mph /  4.8km/h 76% 0.00in /  0mm
08:40 9.7 °F /  -12.4 °C 3.7 °F /  -15.7 °C 30.07in /  1018.2hPa ENE 1.0mph /  1.6km/h 4.0mph /  6.4km/h 76% 0.00in /  0mm
08:50 9.7 °F /  -12.4 °C 3.7 °F /  -15.7 °C 30.07in /  1018.2hPa Calm   5.0mph /  8km/h 76% 0.00in /  0mm
08:55 9.9 °F /  -12.3 °C 4.1 °F /  -15.5 °C 30.07in /  1018.2hPa Calm   4.0mph /  6.4km/h 77% 0.00in /  0mm
09:00 9.9 °F /  -12.3 °C 4.1 °F /  -15.5 °C 30.07in /  1018.2hPa Calm   4.0mph /  6.4km/h 77% 0.00in /  0mm
09:10 10.1 °F /  -12.2 °C 4.3 °F /  -15.4 °C 30.08in /  1018.5hPa Calm   4.0mph /  6.4km/h 77% 0.00in /  0mm
09:15 10.3 °F /  -12.1 °C 4.5 °F /  -15.3 °C 30.08in /  1018.5hPa Calm   2.0mph /  3.2km/h 77% 0.00in /  0mm
09:20 10.5 °F /  -11.9 °C 5.0 °F /  -15 °C 30.08in /  1018.5hPa ENE 1.0mph /  1.6km/h 3.0mph /  4.8km/h 78% 0.00in /  0mm
09:30 10.8 °F /  -11.8 °C 5.3 °F /  -14.8 °C 30.08in /  1018.5hPa Calm   2.0mph /  3.2km/h 78% 0.00in /  0mm
09:35 11.0 °F /  -11.7 °C 5.5 °F /  -14.7 °C 30.08in /  1018.5hPa Calm   2.0mph /  3.2km/h 78% 0.00in /  0mm
09:45 11.4 °F /  -11.4 °C 5.9 °F /  -14.5 °C 30.08in /  1018.5hPa ENE 2.0mph /  3.2km/h 5.0mph /  8km/h 78% 0.00in /  0mm
09:50 11.5 °F /  -11.4 °C 6.0 °F /  -14.4 °C 30.08in /  1018.5hPa ENE 1.0mph /  1.6km/h 5.0mph /  8km/h 78% 0.00in /  0mm
09:55 11.7 °F /  -11.3 °C 6.2 °F /  -14.3 °C 30.08in /  1018.5hPa Calm   5.0mph /  8km/h 78% 0.00in /  0mm
10:00 11.9 °F /  -11.2 °C 6.4 °F /  -14.2 °C 30.08in /  1018.5hPa Calm   5.0mph /  8km/h 78% 0.00in /  0mm
10:10 12.6 °F /  -10.8 °C 7.0 °F /  -13.9 °C 30.08in /  1018.5hPa Calm   2.0mph /  3.2km/h 78% 0.00in /  0mm
10:15 12.8 °F /  -10.7 °C 7.2 °F /  -13.8 °C 30.07in /  1018.2hPa Calm   3.0mph /  4.8km/h 78% 0.00in /  0mm
10:20 13.0 °F /  -10.6 °C 7.1 °F /  -13.8 °C 30.07in /  1018.2hPa ENE 1.0mph /  1.6km/h 3.0mph /  4.8km/h 77% 0.00in /  0mm
10:25 13.3 °F /  -10.4 °C 7.4 °F /  -13.7 °C 30.07in /  1018.2hPa Calm   3.0mph /  4.8km/h 77% 0.00in /  0mm
10:30 13.6 °F /  -10.2 °C 7.7 °F /  -13.5 °C 30.07in /  1018.2hPa Calm   3.0mph /  4.8km/h 77% 0.00in /  0mm
10:35 13.8 °F /  -10.1 °C 7.9 °F /  -13.4 °C 30.07in /  1018.2hPa ENE 1.0mph /  1.6km/h 3.0mph /  4.8km/h 77% 0.00in /  0mm
10:40 14.0 °F /  -10 °C 8.1 °F /  -13.3 °C 30.07in /  1018.2hPa Calm   2.0mph /  3.2km/h 77% 0.00in /  0mm
10:50 14.4 °F /  -9.8 °C 8.5 °F /  -13.1 °C 30.06in /  1017.8hPa Calm   2.0mph /  3.2km/h 77% 0.00in /  0mm
10:55 14.7 °F /  -9.6 °C 9.1 °F /  -12.7 °C 30.06in /  1017.8hPa Calm   2.0mph /  3.2km/h 78% 0.00in /  0mm
11:00 15.0 °F /  -9.4 °C 9.4 °F /  -12.6 °C 30.06in /  1017.8hPa Calm   2.0mph /  3.2km/h 78% 0.00in /  0mm
11:05 15.2 °F /  -9.3 °C 9.6 °F /  -12.4 °C 30.05in /  1017.5hPa ENE 1.0mph /  1.6km/h 3.0mph /  4.8km/h 78% 0.00in /  0mm
11:10 15.4 °F /  -9.2 °C 9.8 °F /  -12.3 °C 30.05in /  1017.5hPa Calm   3.0mph /  4.8km/h 78% 0.00in /  0mm
11:15 15.8 °F /  -9 °C 10.4 °F /  -12 °C 30.05in /  1017.5hPa Calm   2.0mph /  3.2km/h 79% 0.00in /  0mm
11:20 16.1 °F /  -8.8 °C 10.7 °F /  -11.8 °C 30.04in /  1017.2hPa Calm   3.0mph /  4.8km/h 79% 0.00in /  0mm
11:25 16.2 °F /  -8.8 °C 10.5 °F /  -11.9 °C 30.04in /  1017.2hPa ENE 1.0mph /  1.6km/h 5.0mph /  8km/h 78% 0.00in /  0mm
11:30 16.1 °F /  -8.8 °C 10.5 °F /  -11.9 °C 30.04in /  1017.2hPa East 1.0mph /  1.6km/h 5.0mph /  8km/h 78% 0.00in /  0mm
11:35 16.2 °F /  -8.8 °C 10.8 °F /  -11.8 °C 30.04in /  1017.2hPa East 1.0mph /  1.6km/h 4.0mph /  6.4km/h 79% 0.00in /  0mm
11:40 16.3 °F /  -8.7 °C 10.9 °F /  -11.7 °C 30.03in /  1016.8hPa Calm   3.0mph /  4.8km/h 79% 0.00in /  0mm
11:45 16.5 °F /  -8.6 °C 11.1 °F /  -11.6 °C 30.03in /  1016.8hPa Calm   3.0mph /  4.8km/h 79% 0.00in /  0mm
11:50 16.6 °F /  -8.6 °C 11.2 °F /  -11.6 °C 30.03in /  1016.8hPa Calm   3.0mph /  4.8km/h 79% 0.00in /  0mm
11:55 16.8 °F /  -8.4 °C 11.4 °F /  -11.4 °C 30.03in /  1016.8hPa Calm   3.0mph /  4.8km/h 79% 0.00in /  0mm
12:00 16.9 °F /  -8.4 °C 11.5 °F /  -11.4 °C 30.03in /  1016.8hPa East 2.0mph /  3.2km/h 5.0mph /  8km/h 79% 0.00in /  0mm
12:05 17.0 °F /  -8.3 °C 11.6 °F /  -11.3 °C 30.03in /  1016.8hPa East 1.0mph /  1.6km/h 5.0mph /  8km/h 79% 0.00in /  0mm
12:10 17.2 °F /  -8.2 °C 11.8 °F /  -11.2 °C 30.03in /  1016.8hPa East 1.0mph /  1.6km/h 5.0mph /  8km/h 79% 0.00in /  0mm
12:15 17.4 °F /  -8.1 °C 12.0 °F /  -11.1 °C 30.03in /  1016.8hPa Calm   5.0mph /  8km/h 79% 0.00in /  0mm
12:20 17.6 °F /  -8 °C 12.2 °F /  -11 °C 30.02in /  1016.5hPa Calm   3.0mph /  4.8km/h 79% 0.00in /  0mm
12:25 17.7 °F /  -7.9 °C 12.3 °F /  -10.9 °C 30.02in /  1016.5hPa Calm   3.0mph /  4.8km/h 79% 0.00in /  0mm
12:35 18.0 °F /  -7.8 °C 12.9 °F /  -10.6 °C 30.02in /  1016.5hPa Calm   2.0mph /  3.2km/h 80% 0.00in /  0mm
12:40 18.0 °F /  -7.8 °C 12.9 °F /  -10.6 °C 30.02in /  1016.5hPa Calm   2.0mph /  3.2km/h 80% 0.00in /  0mm
12:45 18.1 °F /  -7.7 °C 13.0 °F /  -10.6 °C 30.02in /  1016.5hPa Calm   1.0mph /  1.6km/h 80% 0.00in /  0mm
12:50 18.2 °F /  -7.7 °C 13.1 °F /  -10.5 °C 30.02in /  1016.5hPa Calm     80% 0.00in /  0mm
12:55 18.2 °F /  -7.7 °C 13.1 °F /  -10.5 °C 30.02in /  1016.5hPa Calm     80% 0.00in /  0mm
13:00 18.3 °F /  -7.6 °C 13.2 °F /  -10.4 °C 30.02in /  1016.5hPa Calm   3.0mph /  4.8km/h 80% 0.00in /  0mm
13:05 18.4 °F /  -7.6 °C 13.3 °F /  -10.4 °C 30.02in /  1016.5hPa East 1.0mph /  1.6km/h 3.0mph /  4.8km/h 80% 0.00in /  0mm
13:10 18.4 °F /  -7.6 °C 13.3 °F /  -10.4 °C 30.02in /  1016.5hPa East 1.0mph /  1.6km/h 3.0mph /  4.8km/h 80% 0.00in /  0mm
13:15 18.4 °F /  -7.6 °C 13.3 °F /  -10.4 °C 30.02in /  1016.5hPa East 1.0mph /  1.6km/h 5.0mph /  8km/h 80% 0.00in /  0mm
13:20 18.4 °F /  -7.6 °C 13.5 °F /  -10.3 °C 30.02in /  1016.5hPa East 1.0mph /  1.6km/h 5.0mph /  8km/h 81% 0.00in /  0mm
13:25 18.5 °F /  -7.5 °C 13.6 °F /  -10.2 °C 30.02in /  1016.5hPa Calm   3.0mph /  4.8km/h 81% 0.00in /  0mm
13:30 18.8 °F /  -7.3 °C 13.9 °F /  -10.1 °C 30.02in /  1016.5hPa Calm   1.0mph /  1.6km/h 81% 0.00in /  0mm
13:35 18.9 °F /  -7.3 °C 14.0 °F /  -10 °C 30.02in /  1016.5hPa East 1.0mph /  1.6km/h 5.0mph /  8km/h 81% 0.00in /  0mm
13:40 19.0 °F /  -7.2 °C 14.1 °F /  -9.9 °C 30.02in /  1016.5hPa Calm   5.0mph /  8km/h 81% 0.00in /  0mm
13:45 19.2 °F /  -7.1 °C 14.3 °F /  -9.8 °C 30.02in /  1016.5hPa Calm   3.0mph /  4.8km/h 81% 0.00in /  0mm
13:50 19.4 °F /  -7 °C 14.5 °F /  -9.7 °C 30.02in /  1016.5hPa East 1.0mph /  1.6km/h 3.0mph /  4.8km/h 81% 0.00in /  0mm
14:00 19.5 °F /  -6.9 °C 14.6 °F /  -9.7 °C 30.01in /  1016.1hPa Calm   3.0mph /  4.8km/h 81% 0.00in /  0mm
14:05 19.6 °F /  -6.9 °C 14.7 °F /  -9.6 °C 30.01in /  1016.1hPa Calm   3.0mph /  4.8km/h 81% 0.00in /  0mm
14:10 19.7 °F /  -6.8 °C 14.8 °F /  -9.6 °C 30.01in /  1016.1hPa East 2.0mph /  3.2km/h 5.0mph /  8km/h 81% 0.00in /  0mm
14:20 19.7 °F /  -6.8 °C 14.8 °F /  -9.6 °C 30.01in /  1016.1hPa Calm   3.0mph /  4.8km/h 81% 0.00in /  0mm
14:25 19.8 °F /  -6.8 °C 14.9 °F /  -9.5 °C 30.02in /  1016.5hPa Calm   3.0mph /  4.8km/h 81% 0.00in /  0mm
14:30 19.8 °F /  -6.8 °C 14.9 °F /  -9.5 °C 30.02in /  1016.5hPa Calm   3.0mph /  4.8km/h 81% 0.00in /  0mm
14:40 20.0 °F /  -6.7 °C 15.1 °F /  -9.4 °C 30.02in /  1016.5hPa Calm     81% 0.00in /  0mm
14:50 20.3 °F /  -6.5 °C 15.4 °F /  -9.2 °C 30.03in /  1016.8hPa Calm     81% 0.00in /  0mm
14:55 20.5 °F /  -6.4 °C 15.6 °F /  -9.1 °C 30.03in /  1016.8hPa Calm     81% 0.00in /  0mm
15:00 20.6 °F /  -6.3 °C 15.7 °F /  -9.1 °C 30.03in /  1016.8hPa Calm     81% 0.00in /  0mm
15:05 20.6 °F /  -6.3 °C 15.7 °F /  -9.1 °C 30.03in /  1016.8hPa Calm     81% 0.00in /  0mm
15:10 20.7 °F /  -6.3 °C 15.8 °F /  -9 °C 30.03in /  1016.8hPa Calm     81% 0.00in /  0mm
15:15 20.8 °F /  -6.2 °C 15.9 °F /  -8.9 °C 30.03in /  1016.8hPa Calm     81% 0.00in /  0mm
15:20 20.9 °F /  -6.2 °C 16.0 °F /  -8.9 °C 30.03in /  1016.8hPa Calm     81% 0.00in /  0mm
15:25 21.0 °F /  -6.1 °C 16.1 °F /  -8.8 °C 30.03in /  1016.8hPa Calm     81% 0.00in /  0mm
15:30 21.1 °F /  -6.1 °C 16.2 °F /  -8.8 °C 30.03in /  1016.8hPa Calm     81% 0.00in /  0mm
15:40 21.2 °F /  -6 °C 16.3 °F /  -8.7 °C 30.04in /  1017.2hPa Calm     81% 0.00in /  0mm
15:50 21.4 °F /  -5.9 °C 16.5 °F /  -8.6 °C 30.04in /  1017.2hPa Calm     81% 0.00in /  0mm
15:55 21.5 °F /  -5.8 °C 16.6 °F /  -8.6 °C 30.04in /  1017.2hPa Calm     81% 0.00in /  0mm
16:00 21.5 °F /  -5.8 °C 16.6 °F /  -8.6 °C 30.04in /  1017.2hPa Calm     81% 0.00in /  0mm
16:05 21.5 °F /  -5.8 °C 16.6 °F /  -8.6 °C 30.04in /  1017.2hPa Calm     81% 0.00in /  0mm
16:10 21.5 °F /  -5.8 °C 16.9 °F /  -8.4 °C 30.04in /  1017.2hPa Calm     82% 0.00in /  0mm
16:15 21.5 °F /  -5.8 °C 16.9 °F /  -8.4 °C 30.04in /  1017.2hPa Calm     82% 0.00in /  0mm
16:25 21.6 °F /  -5.8 °C 16.7 °F /  -8.5 °C 30.04in /  1017.2hPa Calm   1.0mph /  1.6km/h 81% 0.00in /  0mm
16:30 21.6 °F /  -5.8 °C 16.7 °F /  -8.5 °C 30.04in /  1017.2hPa Calm   1.0mph /  1.6km/h 81% 0.00in /  0mm
16:35 21.6 °F /  -5.8 °C 16.7 °F /  -8.5 °C 30.04in /  1017.2hPa Calm     81% 0.00in /  0mm
16:40 21.6 °F /  -5.8 °C 16.7 °F /  -8.5 °C 30.05in /  1017.5hPa Calm     81% 0.00in /  0mm
16:45 21.5 °F /  -5.8 °C 16.9 °F /  -8.4 °C 30.05in /  1017.5hPa Calm     82% 0.00in /  0mm
16:50 21.3 °F /  -5.9 °C 16.7 °F /  -8.5 °C 30.05in /  1017.5hPa Calm     82% 0.00in /  0mm
16:55 21.1 °F /  -6.1 °C 16.5 °F /  -8.6 °C 30.05in /  1017.5hPa Calm     82% 0.00in /  0mm
17:00 21.0 °F /  -6.1 °C 16.4 °F /  -8.7 °C 30.05in /  1017.5hPa Calm     82% 0.00in /  0mm
17:05 20.9 °F /  -6.2 °C 16.3 °F /  -8.7 °C 30.05in /  1017.5hPa Calm     82% 0.00in /  0mm
17:10 20.9 °F /  -6.2 °C 16.6 °F /  -8.6 °C 30.05in /  1017.5hPa Calm     83% 0.00in /  0mm
17:15 20.8 °F /  -6.2 °C 16.2 °F /  -8.8 °C 30.04in /  1017.2hPa Calm     82% 0.00in /  0mm
17:20 20.8 °F /  -6.2 °C 16.2 °F /  -8.8 °C 30.04in /  1017.2hPa Calm   2.0mph /  3.2km/h 82% 0.00in /  0mm
17:25 20.9 °F /  -6.2 °C 16.3 °F /  -8.7 °C 30.04in /  1017.2hPa Calm   2.0mph /  3.2km/h 82% 0.00in /  0mm
17:30 21.0 °F /  -6.1 °C 16.7 °F /  -8.5 °C 30.05in /  1017.5hPa Calm   2.0mph /  3.2km/h 83% 0.00in /  0mm
17:35 21.1 °F /  -6.1 °C 16.7 °F /  -8.5 °C 30.04in /  1017.2hPa Calm     83% 0.00in /  0mm
17:45 21.1 °F /  -6.1 °C 16.7 °F /  -8.5 °C 30.04in /  1017.2hPa Calm     83% 0.00in /  0mm
17:50 21.1 °F /  -6.1 °C 16.7 °F /  -8.5 °C 30.04in /  1017.2hPa Calm     83% 0.00in /  0mm
17:55 21.1 °F /  -6.1 °C 16.7 °F /  -8.5 °C 30.04in /  1017.2hPa Calm     83% 0.00in /  0mm
18:00 21.1 °F /  -6.1 °C 16.5 °F /  -8.6 °C 30.04in /  1017.2hPa Calm     82% 0.00in /  0mm
18:10 21.2 °F /  -6 °C 16.8 °F /  -8.4 °C 30.04in /  1017.2hPa Calm     83% 0.00in /  0mm
18:15 21.2 °F /  -6 °C 16.8 °F /  -8.4 °C 30.04in /  1017.2hPa Calm     83% 0.00in /  0mm
18:20 21.4 °F /  -5.9 °C 17.0 °F /  -8.3 °C 30.03in /  1016.8hPa Calm   2.0mph /  3.2km/h 83% 0.00in /  0mm
18:25 21.6 °F /  -5.8 °C 17.2 °F /  -8.2 °C 30.04in /  1017.2hPa Calm   2.0mph /  3.2km/h 83% 0.00in /  0mm
18:30 21.8 °F /  -5.7 °C 17.4 °F /  -8.1 °C 30.03in /  1016.8hPa East 1.0mph /  1.6km/h 3.0mph /  4.8km/h 83% 0.00in /  0mm
18:35 21.9 °F /  -5.6 °C 17.5 °F /  -8.1 °C 30.04in /  1017.2hPa East 1.0mph /  1.6km/h 5.0mph /  8km/h 83% 0.00in /  0mm
18:40 22.1 °F /  -5.5 °C 17.7 °F /  -7.9 °C 30.03in /  1016.8hPa Calm   5.0mph /  8km/h 83% 0.00in /  0mm
18:45 22.2 °F /  -5.4 °C 17.8 °F /  -7.9 °C 30.04in /  1017.2hPa Calm   3.0mph /  4.8km/h 83% 0.00in /  0mm
18:50 22.2 °F /  -5.4 °C 17.8 °F /  -7.9 °C 30.04in /  1017.2hPa Calm     83% 0.00in /  0mm
18:55 22.2 °F /  -5.4 °C 17.8 °F /  -7.9 °C 30.04in /  1017.2hPa Calm     83% 0.00in /  0mm
19:00 22.2 °F /  -5.4 °C 17.8 °F /  -7.9 °C 30.04in /  1017.2hPa Calm     83% 0.00in /  0mm
19:05 22.3 °F /  -5.4 °C 17.9 °F /  -7.8 °C 30.04in /  1017.2hPa Calm     83% 0.00in /  0mm
19:10 22.3 °F /  -5.4 °C 17.9 °F /  -7.8 °C 30.04in /  1017.2hPa Calm     83% 0.00in /  0mm
19:20 22.5 °F /  -5.3 °C 18.4 °F /  -7.6 °C 30.03in /  1016.8hPa East 1.0mph /  1.6km/h 2.0mph /  3.2km/h 84% 0.00in /  0mm
19:25 22.7 °F /  -5.2 °C 18.6 °F /  -7.4 °C 30.03in /  1016.8hPa Calm   3.0mph /  4.8km/h 84% 0.00in /  0mm
19:30 22.9 °F /  -5.1 °C 18.8 °F /  -7.3 °C 30.03in /  1016.8hPa Calm   3.0mph /  4.8km/h 84% 0.00in /  0mm
19:35 23.0 °F /  -5 °C 18.9 °F /  -7.3 °C 30.03in /  1016.8hPa Calm     84% 0.00in /  0mm
19:40 22.9 °F /  -5.1 °C 18.5 °F /  -7.5 °C 30.03in /  1016.8hPa Calm     83% 0.00in /  0mm
19:45 22.9 °F /  -5.1 °C 18.8 °F /  -7.3 °C 30.03in /  1016.8hPa Calm   2.0mph /  3.2km/h 84% 0.00in /  0mm
19:50 22.9 °F /  -5.1 °C 18.8 °F /  -7.3 °C 30.03in /  1016.8hPa Calm   2.0mph /  3.2km/h 84% 0.00in /  0mm
19:55 23.0 °F /  -5 °C 18.9 °F /  -7.3 °C 30.03in /  1016.8hPa Calm   2.0mph /  3.2km/h 84% 0.00in /  0mm
20:00 23.1 °F /  -4.9 °C 19.0 °F /  -7.2 °C 30.03in /  1016.8hPa Calm   2.0mph /  3.2km/h 84% 0.00in /  0mm
20:05 23.1 °F /  -4.9 °C 19.0 °F /  -7.2 °C 30.03in /  1016.8hPa Calm     84% 0.00in /  0mm
20:10 23.1 °F /  -4.9 °C 19.0 °F /  -7.2 °C 30.03in /  1016.8hPa Calm     84% 0.00in /  0mm
20:15 23.0 °F /  -5 °C 18.9 °F /  -7.3 °C 30.03in /  1016.8hPa Calm     84% 0.00in /  0mm
20:20 23.1 °F /  -4.9 °C 19.0 °F /  -7.2 °C 30.03in /  1016.8hPa Calm     84% 0.00in /  0mm
20:25 23.1 °F /  -4.9 °C 19.0 °F /  -7.2 °C 30.03in /  1016.8hPa Calm     84% 0.00in /  0mm
20:30 23.2 °F /  -4.9 °C 19.1 °F /  -7.2 °C 30.03in /  1016.8hPa Calm     84% 0.00in /  0mm
20:35 23.3 °F /  -4.8 °C 19.5 °F /  -6.9 °C 30.02in /  1016.5hPa Calm     85% 0.00in /  0mm
20:40 23.4 °F /  -4.8 °C 19.6 °F /  -6.9 °C 30.02in /  1016.5hPa Calm     85% 0.00in /  0mm
20:45 23.5 °F /  -4.7 °C 19.7 °F /  -6.8 °C 30.02in /  1016.5hPa Calm     85% 0.00in /  0mm
20:50 23.5 °F /  -4.7 °C 19.7 °F /  -6.8 °C 30.02in /  1016.5hPa Calm     85% 0.00in /  0mm
20:55 23.6 °F /  -4.7 °C 19.8 °F /  -6.8 °C 30.01in /  1016.1hPa Calm     85% 0.00in /  0mm
21:00 23.7 °F /  -4.6 °C 19.9 °F /  -6.7 °C 30.01in /  1016.1hPa Calm   2.0mph /  3.2km/h 85% 0.00in /  0mm
21:05 23.9 °F /  -4.5 °C 20.1 °F /  -6.6 °C 30.01in /  1016.1hPa Calm   2.0mph /  3.2km/h 85% 0.00in /  0mm
21:15 24.2 °F /  -4.3 °C 20.3 °F /  -6.5 °C 30.01in /  1016.1hPa Calm   2.0mph /  3.2km/h 85% 0.00in /  0mm
21:20 24.4 °F /  -4.2 °C 20.5 °F /  -6.4 °C 30.01in /  1016.1hPa Calm     85% 0.00in /  0mm
21:30 24.6 °F /  -4.1 °C 20.7 °F /  -6.3 °C 30.01in /  1016.1hPa Calm     85% 0.00in /  0mm
21:40 24.7 °F /  -4.1 °C 20.8 °F /  -6.2 °C 30.01in /  1016.1hPa Calm     85% 0.00in /  0mm
21:45 24.6 °F /  -4.1 °C 20.7 °F /  -6.3 °C 30.01in /  1016.1hPa Calm     85% 0.00in /  0mm
21:50 24.6 °F /  -4.1 °C 20.7 °F /  -6.3 °C 30.01in /  1016.1hPa Calm     85% 0.00in /  0mm
21:55 24.5 °F /  -4.2 °C 20.6 °F /  -6.3 °C 30.01in /  1016.1hPa East 1.0mph /  1.6km/h 2.0mph /  3.2km/h 85% 0.00in /  0mm
22:00 24.5 °F /  -4.2 °C 22.5 °F /  -5.3 °C 30.01in /  1016.1hPa Calm   2.0mph /  3.2km/h 92% 0.00in /  0mm
22:05 24.4 °F /  -4.2 °C 22.4 °F /  -5.3 °C 30.01in /  1016.1hPa Calm     92% 0.00in /  0mm
22:10 24.4 °F /  -4.2 °C 22.4 °F /  -5.3 °C 30.01in /  1016.1hPa Calm     92% 0.00in /  0mm
22:15 24.5 °F /  -4.2 °C 20.6 °F /  -6.3 °C 30.01in /  1016.1hPa Calm     85% 0.00in /  0mm
22:20 24.6 °F /  -4.1 °C 20.7 °F /  -6.3 °C 30.01in /  1016.1hPa Calm     85% 0.00in /  0mm
22:25 24.7 °F /  -4.1 °C 20.8 °F /  -6.2 °C 30.01in /  1016.1hPa Calm     85% 0.00in /  0mm
22:35 24.9 °F /  -3.9 °C 21.3 °F /  -5.9 °C 30.01in /  1016.1hPa Calm     86% 0.00in /  0mm
22:40 25.0 °F /  -3.9 °C 21.4 °F /  -5.9 °C 30.01in /  1016.1hPa Calm     86% 0.00in /  0mm
22:45 25.1 °F /  -3.8 °C 21.5 °F /  -5.8 °C 30.01in /  1016.1hPa Calm   3.0mph /  4.8km/h 86% 0.00in /  0mm
22:50 25.5 °F /  -3.6 °C 21.9 °F /  -5.6 °C 30.01in /  1016.1hPa East 1.0mph /  1.6km/h 5.0mph /  8km/h 86% 0.00in /  0mm
22:55 26.2 °F /  -3.2 °C 22.6 °F /  -5.2 °C 30.00in /  1015.8hPa SE 1.0mph /  1.6km/h 5.0mph /  8km/h 86% 0.00in /  0mm
23:05 27.6 °F /  -2.4 °C 24.0 °F /  -4.4 °C 30.00in /  1015.8hPa Calm   6.0mph /  9.7km/h 86% 0.00in /  0mm
23:10 27.8 °F /  -2.3 °C 24.2 °F /  -4.3 °C 30.00in /  1015.8hPa Calm   3.0mph /  4.8km/h 86% 0.00in /  0mm
23:15 27.9 °F /  -2.3 °C 24.3 °F /  -4.3 °C 30.00in /  1015.8hPa Calm   1.0mph /  1.6km/h 86% 0.00in /  0mm
23:20 27.9 °F /  -2.3 °C 24.3 °F /  -4.3 °C 30.00in /  1015.8hPa Calm     86% 0.00in /  0mm
23:25 27.9 °F /  -2.3 °C 24.3 °F /  -4.3 °C 30.00in /  1015.8hPa Calm     86% 0.00in /  0mm
23:30 27.7 °F /  -2.4 °C 24.1 °F /  -4.4 °C 30.00in /  1015.8hPa Calm     86% 0.00in /  0mm
23:35 27.5 °F /  -2.5 °C 23.9 °F /  -4.5 °C 30.00in /  1015.8hPa Calm     86% 0.00in /  0mm
23:40 27.4 °F /  -2.6 °C 24.0 °F /  -4.4 °C 30.00in /  1015.8hPa Calm     87% 0.00in /  0mm
23:50 27.6 °F /  -2.4 °C 24.2 °F /  -4.3 °C 29.99in /  1015.5hPa Calm     87% 0.00in /  0mm
23:55 27.8 °F /  -2.3 °C 24.4 °F /  -4.2 °C 29.98in /  1015.1hPa Calm     87% 0.00in /  0mm
Westford Weather
Compliments of Weather Underground

 
 
Current Radar Loop:

Copyright © WestfordWeather.net 2007-2014. All rights reserved.